Chatuge Observed Data For Previous 48 Hours

Caption
Day and Hour Reservoir Elevation (behind dam)* Tailwater Elevation (below dam)* Average Hourly Discharge*
7/14/2018 2 AM EDT 1,924.98 1,802.39 0
7/14/2018 3 AM EDT 1,924.98 1,802.39 0
7/14/2018 4 AM EDT 1,924.99 1,803.60 20
7/14/2018 5 AM EDT 1,924.99 1,804.21 757
7/14/2018 6 AM EDT 1,924.99 1,803.36 0
7/14/2018 7 AM EDT 1,924.99 1,803.03 0
7/14/2018 8 AM EDT 1,925.00 1,802.71 0
7/14/2018 9 AM EDT 1,925.00 1,802.42 0
7/14/2018 10 AM EDT 1,925.01 1,802.39 0
7/14/2018 11 AM EDT 1,925.01 1,802.39 0
7/14/2018 12 PM EDT 1,925.01 1,802.39 0
7/14/2018 1 PM EDT 1,925.02 1,802.39 0
7/14/2018 2 PM EDT 1,925.02 1,803.69 24
7/14/2018 3 PM EDT 1,925.02 1,805.59 1,204
7/14/2018 4 PM EDT 1,925.01 1,805.80 1,189
7/14/2018 5 PM EDT 1,925.00 1,805.83 1,184
7/14/2018 6 PM EDT 1,924.99 1,805.82 1,186
7/14/2018 7 PM EDT 1,924.98 1,805.78 1,180
7/14/2018 8 PM EDT 1,924.97 1,805.77 1,182
7/14/2018 9 PM EDT 1,924.96 1,803.57 32
7/14/2018 10 PM EDT 1,924.96 1,803.19 0
7/14/2018 11 PM EDT 1,924.96 1,802.86 0
7/15/2018 12 AM EDT 1,924.97 1,802.56 0
7/15/2018 1 AM EDT 1,924.97 1,802.39 0
7/15/2018 2 AM EDT 1,924.97 1,802.39 0
7/15/2018 3 AM EDT 1,924.98 1,802.39 0
7/15/2018 4 AM EDT 1,924.98 1,802.39 0
7/15/2018 5 AM EDT 1,924.98 1,802.39 0
7/15/2018 6 AM EDT 1,924.99 1,802.39 0
7/15/2018 7 AM EDT 1,924.99 1,803.65 39
7/15/2018 8 AM EDT 1,924.99 1,804.27 888
7/15/2018 9 AM EDT 1,924.99 1,803.39 0
7/15/2018 10 AM EDT 1,924.99 1,803.06 0
7/15/2018 11 AM EDT 1,924.99 1,802.74 0
7/15/2018 12 PM EDT 1,924.99 1,802.44 0
7/15/2018 1 PM EDT 1,924.99 1,802.39 0
7/15/2018 2 PM EDT 1,924.99 1,802.39 0
7/15/2018 3 PM EDT 1,925.01 1,802.39 0
7/15/2018 4 PM EDT 1,925.02 1,803.81 36
7/15/2018 5 PM EDT 1,925.01 1,805.67 1,189
7/15/2018 6 PM EDT 1,925.00 1,805.83 1,174
7/15/2018 7 PM EDT 1,924.99 1,805.73 1,171
7/15/2018 8 PM EDT 1,924.99 1,803.57 32
7/15/2018 9 PM EDT 1,924.99 1,803.19 0
7/15/2018 10 PM EDT 1,925.00 1,803.00 0
7/15/2018 11 PM EDT 1,925.04 1,802.80 0
7/16/2018 12 AM EDT 1,925.08 1,802.53 0
7/16/2018 1 AM EDT 1,925.09 1,802.39 0
7/16/2018 2 AM EDT 1,925.10 1,802.39 0

Elevations are in feet above sea level. Discharges are in cubic feet per second and are reported at the end of the hour.